sensor_id;sensor_type;location;lat;lon;timestamp;pressure;altitude;pressure_sealevel;temperature;humidity
41596;BME280;27283;52.504;13.358;2024-01-11T00:02:30;102804.66;;;-4.77;72.39
41596;BME280;27283;52.504;13.358;2024-01-11T00:05:04;102799.81;;;-5.16;74.18
41596;BME280;27283;52.504;13.358;2024-01-11T00:07:36;102806.72;;;-5.10;74.53
41596;BME280;27283;52.504;13.358;2024-01-11T00:10:09;102806.16;;;-4.53;72.25
41596;BME280;27283;52.504;13.358;2024-01-11T00:12:46;102795.34;;;-5.06;73.46
41596;BME280;27283;52.504;13.358;2024-01-11T00:15:21;102794.91;;;-5.56;75.63
41596;BME280;27283;52.504;13.358;2024-01-11T00:17:54;102801.88;;;-5.54;76.26
41596;BME280;27283;52.504;13.358;2024-01-11T00:20:26;102803.41;;;-5.26;75.74
41596;BME280;27283;52.504;13.358;2024-01-11T00:22:58;102794.91;;;-5.58;76.36
41596;BME280;27283;52.504;13.358;2024-01-11T00:25:30;102784.50;;;-5.67;76.82
41596;BME280;27283;52.504;13.358;2024-01-11T00:28:03;102783.84;;;-4.94;74.74
41596;BME280;27283;52.504;13.358;2024-01-11T00:30:38;102782.59;;;-5.45;74.67
41596;BME280;27283;52.504;13.358;2024-01-11T00:33:11;102778.28;;;-5.54;76.56
41596;BME280;27283;52.504;13.358;2024-01-11T00:35:43;102759.22;;;-5.74;77.35
41596;BME280;27283;52.504;13.358;2024-01-11T00:38:15;102774.41;;;-6.27;79.11
41596;BME280;27283;52.504;13.358;2024-01-11T00:40:47;102764.75;;;-6.13;79.22
41596;BME280;27283;52.504;13.358;2024-01-11T00:43:18;102762.81;;;-5.92;79.71
41596;BME280;27283;52.504;13.358;2024-01-11T00:45:53;102749.09;;;-5.18;77.88
41596;BME280;27283;52.504;13.358;2024-01-11T00:48:25;102731.75;;;-5.31;76.75
41596;BME280;27283;52.504;13.358;2024-01-11T00:50:57;102729.09;;;-5.25;77.35
41596;BME280;27283;52.504;13.358;2024-01-11T00:53:28;102739.47;;;-5.14;76.84
41596;BME280;27283;52.504;13.358;2024-01-11T00:56:01;102744.47;;;-5.91;79.08
41596;BME280;27283;52.504;13.358;2024-01-11T00:58:33;102747.91;;;-5.79;79.08
41596;BME280;27283;52.504;13.358;2024-01-11T01:01:12;102720.78;;;-5.77;79.98
41596;BME280;27283;52.504;13.358;2024-01-11T01:03:47;102740.03;;;-5.78;79.18
41596;BME280;27283;52.504;13.358;2024-01-11T01:06:19;102728.25;;;-5.30;78.78
41596;BME280;27283;52.504;13.358;2024-01-11T01:08:52;102735.84;;;-5.99;79.35
41596;BME280;27283;52.504;13.358;2024-01-11T01:11:24;102705.28;;;-5.98;80.50
41596;BME280;27283;52.504;13.358;2024-01-11T01:13:56;102687.25;;;-6.49;81.71
41596;BME280;27283;52.504;13.358;2024-01-11T01:16:31;102696.19;;;-5.60;80.38
41596;BME280;27283;52.504;13.358;2024-01-11T01:19:03;102704.38;;;-5.03;78.03
41596;BME280;27283;52.504;13.358;2024-01-11T01:21:35;102709.00;;;-5.26;77.82
41596;BME280;27283;52.504;13.358;2024-01-11T01:24:07;102691.28;;;-5.07;77.22
41596;BME280;27283;52.504;13.358;2024-01-11T01:26:40;102708.63;;;-4.95;76.88
41596;BME280;27283;52.504;13.358;2024-01-11T01:29:12;102707.94;;;-5.10;76.33
41596;BME280;27283;52.504;13.358;2024-01-11T01:31:47;102717.09;;;-5.54;77.91
41596;BME280;27283;52.504;13.358;2024-01-11T01:34:51;102716.31;;;-5.62;80.59
41596;BME280;27283;52.504;13.358;2024-01-11T01:37:23;102729.66;;;-5.90;80.78
41596;BME280;27283;52.504;13.358;2024-01-11T01:39:55;102729.09;;;-5.27;78.55
41596;BME280;27283;52.504;13.358;2024-01-11T01:42:28;102724.34;;;-5.81;80.42
41596;BME280;27283;52.504;13.358;2024-01-11T01:45:00;102718.00;;;-5.54;80.43
41596;BME280;27283;52.504;13.358;2024-01-11T01:47:36;102711.06;;;-5.62;79.98
41596;BME280;27283;52.504;13.358;2024-01-11T01:50:10;102723.03;;;-5.34;80.83
41596;BME280;27283;52.504;13.358;2024-01-11T01:52:43;102710.19;;;-5.61;81.40
41596;BME280;27283;52.504;13.358;2024-01-11T01:55:16;102713.66;;;-4.75;79.31
41596;BME280;27283;52.504;13.358;2024-01-11T01:57:50;102709.81;;;-4.48;78.00
41596;BME280;27283;52.504;13.358;2024-01-11T02:00:23;102725.63;;;-5.29;78.56
41596;BME280;27283;52.504;13.358;2024-01-11T02:03:03;102729.13;;;-5.33;79.90
41596;BME280;27283;52.504;13.358;2024-01-11T02:05:36;102735.66;;;-4.86;79.69
41596;BME280;27283;52.504;13.358;2024-01-11T02:08:15;102725.94;;;-5.64;81.15
41596;BME280;27283;52.504;13.358;2024-01-11T02:10:47;102726.06;;;-4.90;80.38
41596;BME280;27283;52.504;13.358;2024-01-11T02:13:20;102746.00;;;-4.73;79.12
41596;BME280;27283;52.504;13.358;2024-01-11T02:15:53;102756.88;;;-5.07;79.29
41596;BME280;27283;52.504;13.358;2024-01-11T02:18:28;102749.94;;;-5.11;79.63
41596;BME280;27283;52.504;13.358;2024-01-11T02:20:57;102764.53;;;-5.83;82.37
41596;BME280;27283;52.504;13.358;2024-01-11T02:23:30;102743.00;;;-5.19;82.62
41596;BME280;27283;52.504;13.358;2024-01-11T02:26:05;102748.28;;;-5.23;81.42
41596;BME280;27283;52.504;13.358;2024-01-11T02:28:37;102744.81;;;-5.22;82.41
41596;BME280;27283;52.504;13.358;2024-01-11T02:31:09;102746.69;;;-5.38;81.99
41596;BME280;27283;52.504;13.358;2024-01-11T02:33:56;102761.97;;;-5.93;85.03
41596;BME280;27283;52.504;13.358;2024-01-11T02:36:29;102760.53;;;-5.21;83.32
41596;BME280;27283;52.504;13.358;2024-01-11T02:39:01;102760.53;;;-5.22;81.84
41596;BME280;27283;52.504;13.358;2024-01-11T02:41:37;102753.03;;;-5.67;83.58
41596;BME280;27283;52.504;13.358;2024-01-11T02:44:10;102756.97;;;-5.18;82.50
41596;BME280;27283;52.504;13.358;2024-01-11T02:46:42;102758.94;;;-5.39;82.42
41596;BME280;27283;52.504;13.358;2024-01-11T02:49:15;102737.63;;;-6.07;84.59
41596;BME280;27283;52.504;13.358;2024-01-11T02:51:47;102724.34;;;-5.84;85.73
41596;BME280;27283;52.504;13.358;2024-01-11T02:54:19;102714.56;;;-5.65;84.80
41596;BME280;27283;52.504;13.358;2024-01-11T02:56:53;102712.81;;;-5.60;84.17
41596;BME280;27283;52.504;13.358;2024-01-11T02:59:26;102718.72;;;-5.41;84.26
41596;BME280;27283;52.504;13.358;2024-01-11T03:01:58;102709.38;;;-5.68;83.83
41596;BME280;27283;52.504;13.358;2024-01-11T03:04:46;102711.50;;;-5.16;83.89
41596;BME280;27283;52.504;13.358;2024-01-11T03:07:18;102720.44;;;-4.59;81.25
41596;BME280;27283;52.504;13.358;2024-01-11T03:09:50;102723.72;;;-5.14;81.35
41596;BME280;27283;52.504;13.358;2024-01-11T03:12:24;102742.38;;;-5.47;82.20
41596;BME280;27283;52.504;13.358;2024-01-11T03:14:57;102725.72;;;-5.40;81.54
41596;BME280;27283;52.504;13.358;2024-01-11T03:17:29;102741.78;;;-5.81;82.85
41596;BME280;27283;52.504;13.358;2024-01-11T03:20:03;102727.31;;;-6.32;84.42
41596;BME280;27283;52.504;13.358;2024-01-11T03:22:51;102728.34;;;-5.41;82.71
41596;BME280;27283;52.504;13.358;2024-01-11T03:25:24;102727.06;;;-5.93;83.84
41596;BME280;27283;52.504;13.358;2024-01-11T03:27:58;102720.53;;;-5.46;82.82
41596;BME280;27283;52.504;13.358;2024-01-11T03:30:30;102717.63;;;-6.14;82.85
41596;BME280;27283;52.504;13.358;2024-01-11T03:33:06;102723.59;;;-5.02;81.51
41596;BME280;27283;52.504;13.358;2024-01-11T03:35:49;102716.53;;;-4.97;80.56
41596;BME280;27283;52.504;13.358;2024-01-11T03:38:20;102715.00;;;-5.17;80.51
41596;BME280;27283;52.504;13.358;2024-01-11T03:40:50;102711.78;;;-4.66;78.65
41596;BME280;27283;52.504;13.358;2024-01-11T03:43:24;102695.72;;;-4.42;78.30
41596;BME280;27283;52.504;13.358;2024-01-11T03:45:56;102687.25;;;-4.61;78.05
41596;BME280;27283;52.504;13.358;2024-01-11T03:48:28;102684.00;;;-4.82;79.25
41596;BME280;27283;52.504;13.358;2024-01-11T03:51:00;102671.72;;;-4.82;79.82
41596;BME280;27283;52.504;13.358;2024-01-11T03:53:35;102667.13;;;-4.64;79.64
41596;BME280;27283;52.504;13.358;2024-01-11T03:56:07;102668.09;;;-4.07;78.12
41596;BME280;27283;52.504;13.358;2024-01-11T03:58:42;102671.88;;;-3.72;76.92
41596;BME280;27283;52.504;13.358;2024-01-11T04:01:14;102666.97;;;-3.94;77.37
41596;BME280;27283;52.504;13.358;2024-01-11T04:03:46;102670.75;;;-4.11;77.82
41596;BME280;27283;52.504;13.358;2024-01-11T04:06:19;102659.28;;;-4.06;79.34
41596;BME280;27283;52.504;13.358;2024-01-11T04:08:52;102671.66;;;-4.12;78.75
41596;BME280;27283;52.504;13.358;2024-01-11T04:11:27;102667.03;;;-3.99;79.44
41596;BME280;27283;52.504;13.358;2024-01-11T04:14:02;102672.91;;;-3.81;80.14
41596;BME280;27283;52.504;13.358;2024-01-11T04:16:34;102671.28;;;-3.90;80.40
41596;BME280;27283;52.504;13.358;2024-01-11T04:19:05;102654.88;;;-3.53;79.66
41596;BME280;27283;52.504;13.358;2024-01-11T04:21:37;102644.41;;;-4.67;84.39
41596;BME280;27283;52.504;13.358;2024-01-11T04:24:09;102646.78;;;-4.47;85.79
41596;BME280;27283;52.504;13.358;2024-01-11T04:26:41;102668.88;;;-4.02;85.52
41596;BME280;27283;52.504;13.358;2024-01-11T04:29:16;102669.94;;;-3.14;83.03
41596;BME280;27283;52.504;13.358;2024-01-11T04:31:48;102672.88;;;-2.86;81.35
41596;BME280;27283;52.504;13.358;2024-01-11T04:34:20;102672.59;;;-2.72;80.13
41596;BME280;27283;52.504;13.358;2024-01-11T04:36:54;102661.41;;;-2.82;80.99
41596;BME280;27283;52.504;13.358;2024-01-11T04:39:25;102660.78;;;-4.46;86.54
41596;BME280;27283;52.504;13.358;2024-01-11T04:41:57;102665.13;;;-5.15;91.62
41596;BME280;27283;52.504;13.358;2024-01-11T04:44:47;102676.28;;;-4.96;93.45
41596;BME280;27283;52.504;13.358;2024-01-11T04:47:20;102683.19;;;-4.86;94.03
41596;BME280;27283;52.504;13.358;2024-01-11T04:49:51;102675.75;;;-4.53;94.14
41596;BME280;27283;52.504;13.358;2024-01-11T04:52:23;102654.03;;;-4.66;94.14
41596;BME280;27283;52.504;13.358;2024-01-11T04:54:55;102647.22;;;-4.81;94.54
41596;BME280;27283;52.504;13.358;2024-01-11T04:57:27;102645.16;;;-4.57;94.84
41596;BME280;27283;52.504;13.358;2024-01-11T05:00:01;102648.13;;;-4.19;94.40
41596;BME280;27283;52.504;13.358;2024-01-11T05:02:34;102637.91;;;-5.05;96.01
41596;BME280;27283;52.504;13.358;2024-01-11T05:05:08;102637.75;;;-4.91;98.09
41596;BME280;27283;52.504;13.358;2024-01-11T05:07:40;102615.16;;;-4.39;97.81
41596;BME280;27283;52.504;13.358;2024-01-11T05:10:12;102588.38;;;-4.63;97.78
41596;BME280;27283;52.504;13.358;2024-01-11T05:12:44;102619.19;;;-4.75;99.08
41596;BME280;27283;52.504;13.358;2024-01-11T05:15:19;102627.50;;;-4.46;98.61
41596;BME280;27283;52.504;13.358;2024-01-11T05:17:51;102643.56;;;-4.10;97.61
41596;BME280;27283;52.504;13.358;2024-01-11T05:20:23;102648.38;;;-4.38;98.27
41596;BME280;27283;52.504;13.358;2024-01-11T05:22:55;102623.63;;;-4.21;97.56
41596;BME280;27283;52.504;13.358;2024-01-11T05:25:27;102620.66;;;-4.56;98.76
41596;BME280;27283;52.504;13.358;2024-01-11T05:28:02;102626.28;;;-4.24;98.60
41596;BME280;27283;52.504;13.358;2024-01-11T05:30:40;102641.75;;;-4.04;97.98
41596;BME280;27283;52.504;13.358;2024-01-11T05:33:33;102643.38;;;-3.97;98.11
41596;BME280;27283;52.504;13.358;2024-01-11T05:36:08;102640.34;;;-3.72;96.93
41596;BME280;27283;52.504;13.358;2024-01-11T05:38:41;102631.59;;;-3.75;96.10
41596;BME280;27283;52.504;13.358;2024-01-11T05:41:13;102626.94;;;-4.10;96.13
41596;BME280;27283;52.504;13.358;2024-01-11T05:43:45;102635.72;;;-4.11;97.69
41596;BME280;27283;52.504;13.358;2024-01-11T05:46:20;102626.72;;;-3.96;96.83
41596;BME280;27283;52.504;13.358;2024-01-11T05:48:52;102623.22;;;-3.95;97.52
41596;BME280;27283;52.504;13.358;2024-01-11T05:51:24;102619.44;;;-4.32;98.99
41596;BME280;27283;52.504;13.358;2024-01-11T05:54:26;102618.66;;;-3.87;98.55
41596;BME280;27283;52.504;13.358;2024-01-11T05:56:58;102619.09;;;-3.62;97.46
41596;BME280;27283;52.504;13.358;2024-01-11T05:59:30;102615.94;;;-3.34;96.79
41596;BME280;27283;52.504;13.358;2024-01-11T06:02:08;102612.38;;;-3.78;96.97
41596;BME280;27283;52.504;13.358;2024-01-11T06:04:43;102626.28;;;-3.71;97.87
41596;BME280;27283;52.504;13.358;2024-01-11T06:07:17;102648.09;;;-4.18;97.76
41596;BME280;27283;52.504;13.358;2024-01-11T06:09:49;102647.78;;;-3.99;99.92
41596;BME280;27283;52.504;13.358;2024-01-11T06:12:22;102636.09;;;-3.81;99.53
41596;BME280;27283;52.504;13.358;2024-01-11T06:14:53;102636.84;;;-3.75;98.88
41596;BME280;27283;52.504;13.358;2024-01-11T06:17:29;102634.28;;;-3.78;98.30
41596;BME280;27283;52.504;13.358;2024-01-11T06:20:02;102600.19;;;-3.82;98.22
41596;BME280;27283;52.504;13.358;2024-01-11T06:22:34;102599.59;;;-3.98;99.37
41596;BME280;27283;52.504;13.358;2024-01-11T06:25:09;102601.34;;;-3.99;100.00
41596;BME280;27283;52.504;13.358;2024-01-11T06:27:42;102613.44;;;-3.88;100.00
41596;BME280;27283;52.504;13.358;2024-01-11T06:30:16;102615.31;;;-3.47;98.85
41596;BME280;27283;52.504;13.358;2024-01-11T06:33:07;102614.94;;;-3.28;97.46
41596;BME280;27283;52.504;13.358;2024-01-11T06:35:41;102608.75;;;-3.24;97.21
41596;BME280;27283;52.504;13.358;2024-01-11T06:38:15;102623.25;;;-3.05;96.14
41596;BME280;27283;52.504;13.358;2024-01-11T06:40:50;102602.66;;;-3.28;96.74
41596;BME280;27283;52.504;13.358;2024-01-11T06:43:22;102615.06;;;-3.34;97.12
41596;BME280;27283;52.504;13.358;2024-01-11T06:45:54;102610.53;;;-2.84;95.88
41596;BME280;27283;52.504;13.358;2024-01-11T06:48:29;102611.44;;;-2.85;95.37
41596;BME280;27283;52.504;13.358;2024-01-11T06:51:04;102604.75;;;-3.00;95.07
41596;BME280;27283;52.504;13.358;2024-01-11T06:53:38;102601.56;;;-3.17;95.82
41596;BME280;27283;52.504;13.358;2024-01-11T06:56:17;102602.28;;;-3.08;96.19
41596;BME280;27283;52.504;13.358;2024-01-11T06:58:50;102590.75;;;-3.04;96.22
41596;BME280;27283;52.504;13.358;2024-01-11T07:01:22;102596.25;;;-3.14;97.70
41596;BME280;27283;52.504;13.358;2024-01-11T07:04:02;102592.47;;;-3.01;98.06
41596;BME280;27283;52.504;13.358;2024-01-11T07:06:34;102587.22;;;-3.45;99.19
41596;BME280;27283;52.504;13.358;2024-01-11T07:09:07;102580.94;;;-2.95;98.54
41596;BME280;27283;52.504;13.358;2024-01-11T07:11:40;102587.84;;;-2.90;98.19
41596;BME280;27283;52.504;13.358;2024-01-11T07:14:14;102587.06;;;-2.95;97.90
41596;BME280;27283;52.504;13.358;2024-01-11T07:16:47;102601.44;;;-3.11;98.76
41596;BME280;27283;52.504;13.358;2024-01-11T07:19:23;102602.06;;;-2.98;98.42
41596;BME280;27283;52.504;13.358;2024-01-11T07:21:56;102588.75;;;-2.91;98.66
41596;BME280;27283;52.504;13.358;2024-01-11T07:24:28;102594.81;;;-2.89;98.30
41596;BME280;27283;52.504;13.358;2024-01-11T07:27:08;102599.50;;;-2.61;98.09
41596;BME280;27283;52.504;13.358;2024-01-11T07:29:41;102578.53;;;-3.05;97.58
41596;BME280;27283;52.504;13.358;2024-01-11T07:32:13;102574.16;;;-3.49;100.00
41596;BME280;27283;52.504;13.358;2024-01-11T07:34:56;102582.75;;;-2.97;99.60
41596;BME280;27283;52.504;13.358;2024-01-11T07:37:28;102590.56;;;-2.93;99.29
41596;BME280;27283;52.504;13.358;2024-01-11T07:40:01;102594.22;;;-3.00;99.07
41596;BME280;27283;52.504;13.358;2024-01-11T07:42:33;102600.84;;;-2.82;98.52
41596;BME280;27283;52.504;13.358;2024-01-11T07:45:07;102602.28;;;-2.67;97.98
41596;BME280;27283;52.504;13.358;2024-01-11T07:47:40;102598.09;;;-2.77;97.54
41596;BME280;27283;52.504;13.358;2024-01-11T07:50:15;102601.59;;;-2.77;99.45
41596;BME280;27283;52.504;13.358;2024-01-11T07:52:45;102608.31;;;-3.04;100.00
41596;BME280;27283;52.504;13.358;2024-01-11T07:55:17;102602.88;;;-2.96;100.00
41596;BME280;27283;52.504;13.358;2024-01-11T07:57:52;102594.41;;;-3.09;100.00
41596;BME280;27283;52.504;13.358;2024-01-11T08:00:30;102585.78;;;-3.17;100.00
41596;BME280;27283;52.504;13.358;2024-01-11T08:03:07;102577.50;;;-3.40;100.00
41596;BME280;27283;52.504;13.358;2024-01-11T08:05:44;102574.91;;;-3.41;100.00
41596;BME280;27283;52.504;13.358;2024-01-11T08:08:22;102584.13;;;-2.81;100.00
41596;BME280;27283;52.504;13.358;2024-01-11T08:10:55;102585.94;;;-3.25;100.00
41596;BME280;27283;52.504;13.358;2024-01-11T08:13:31;102585.91;;;-2.81;100.00
41596;BME280;27283;52.504;13.358;2024-01-11T08:16:05;102589.84;;;-3.01;100.00
41596;BME280;27283;52.504;13.358;2024-01-11T08:18:39;102577.09;;;-2.80;100.00
41596;BME280;27283;52.504;13.358;2024-01-11T08:21:14;102583.84;;;-2.67;99.25
41596;BME280;27283;52.504;13.358;2024-01-11T08:23:47;102578.41;;;-3.42;100.00
41596;BME280;27283;52.504;13.358;2024-01-11T08:26:20;102583.50;;;-3.34;100.00
41596;BME280;27283;52.504;13.358;2024-01-11T08:28:52;102584.19;;;-3.25;100.00
41596;BME280;27283;52.504;13.358;2024-01-11T08:31:25;102586.44;;;-3.06;100.00
41596;BME280;27283;52.504;13.358;2024-01-11T08:33:59;102585.25;;;-2.54;100.00
41596;BME280;27283;52.504;13.358;2024-01-11T08:36:37;102578.53;;;-3.05;100.00
41596;BME280;27283;52.504;13.358;2024-01-11T08:39:09;102576.22;;;-3.20;100.00
41596;BME280;27283;52.504;13.358;2024-01-11T08:41:43;102562.75;;;-3.06;100.00
41596;BME280;27283;52.504;13.358;2024-01-11T08:44:15;102560.59;;;-3.29;100.00
41596;BME280;27283;52.504;13.358;2024-01-11T08:46:48;102570.63;;;-3.05;100.00
41596;BME280;27283;52.504;13.358;2024-01-11T08:49:21;102569.06;;;-2.74;100.00
41596;BME280;27283;52.504;13.358;2024-01-11T08:51:57;102574.81;;;-2.96;100.00
41596;BME280;27283;52.504;13.358;2024-01-11T08:54:32;102566.75;;;-2.88;100.00
41596;BME280;27283;52.504;13.358;2024-01-11T08:57:05;102569.75;;;-2.66;100.00
41596;BME280;27283;52.504;13.358;2024-01-11T08:59:37;102568.03;;;-3.06;100.00
41596;BME280;27283;52.504;13.358;2024-01-11T09:02:10;102566.50;;;-2.77;100.00
41596;BME280;27283;52.504;13.358;2024-01-11T09:04:56;102550.38;;;-2.63;100.00
41596;BME280;27283;52.504;13.358;2024-01-11T09:07:31;102531.88;;;-2.60;100.00
41596;BME280;27283;52.504;13.358;2024-01-11T09:10:04;102530.28;;;-3.07;100.00
41596;BME280;27283;52.504;13.358;2024-01-11T09:12:37;102527.88;;;-2.77;100.00
41596;BME280;27283;52.504;13.358;2024-01-11T09:15:10;102534.63;;;-2.65;100.00
41596;BME280;27283;52.504;13.358;2024-01-11T09:17:42;102527.16;;;-2.46;100.00
41596;BME280;27283;52.504;13.358;2024-01-11T09:20:15;102528.19;;;-2.17;100.00
41596;BME280;27283;52.504;13.358;2024-01-11T09:25:47;102532.16;;;-2.73;100.00
41596;BME280;27283;52.504;13.358;2024-01-11T09:28:20;102538.31;;;-2.02;100.00
41596;BME280;27283;52.504;13.358;2024-01-11T09:30:52;102564.09;;;-2.15;99.39
41596;BME280;27283;52.504;13.358;2024-01-11T09:33:30;102562.66;;;-1.92;99.47
41596;BME280;27283;52.504;13.358;2024-01-11T09:36:05;102555.34;;;-1.49;97.90
41596;BME280;27283;52.504;13.358;2024-01-11T09:38:37;102547.44;;;-2.15;98.51
41596;BME280;27283;52.504;13.358;2024-01-11T09:41:13;102550.44;;;-2.29;99.29
41596;BME280;27283;52.504;13.358;2024-01-11T09:43:49;102533.66;;;-2.25;100.00
41596;BME280;27283;52.504;13.358;2024-01-11T09:46:28;102541.50;;;-2.23;100.00
41596;BME280;27283;52.504;13.358;2024-01-11T09:49:02;102545.19;;;-2.67;100.00
41596;BME280;27283;52.504;13.358;2024-01-11T09:51:38;102558.16;;;-2.59;100.00
41596;BME280;27283;52.504;13.358;2024-01-11T09:54:13;102557.44;;;-2.28;100.00
41596;BME280;27283;52.504;13.358;2024-01-11T09:56:50;102558.50;;;-2.35;100.00
41596;BME280;27283;52.504;13.358;2024-01-11T09:59:24;102562.25;;;-1.76;98.98
41596;BME280;27283;52.504;13.358;2024-01-11T10:01:56;102561.28;;;-1.74;97.38
41596;BME280;27283;52.504;13.358;2024-01-11T10:04:36;102567.75;;;-1.86;98.08
41596;BME280;27283;52.504;13.358;2024-01-11T10:07:09;102567.91;;;-1.92;97.29
41596;BME280;27283;52.504;13.358;2024-01-11T10:09:42;102553.56;;;-2.15;97.65
41596;BME280;27283;52.504;13.358;2024-01-11T10:12:17;102563.06;;;-2.43;99.70
41596;BME280;27283;52.504;13.358;2024-01-11T10:14:54;102556.72;;;-2.35;100.00
41596;BME280;27283;52.504;13.358;2024-01-11T10:17:26;102551.25;;;-2.63;100.00
41596;BME280;27283;52.504;13.358;2024-01-11T10:20:01;102550.81;;;-2.44;100.00
41596;BME280;27283;52.504;13.358;2024-01-11T10:22:34;102553.03;;;-2.27;100.00
41596;BME280;27283;52.504;13.358;2024-01-11T10:25:10;102541.31;;;-2.16;100.00
41596;BME280;27283;52.504;13.358;2024-01-11T10:27:46;102538.50;;;-2.44;100.00
41596;BME280;27283;52.504;13.358;2024-01-11T10:30:19;102528.97;;;-2.50;100.00
41596;BME280;27283;52.504;13.358;2024-01-11T10:33:07;102516.13;;;-2.27;100.00
41596;BME280;27283;52.504;13.358;2024-01-11T10:35:41;102518.31;;;-2.45;100.00
41596;BME280;27283;52.504;13.358;2024-01-11T10:38:15;102521.69;;;-2.74;100.00
41596;BME280;27283;52.504;13.358;2024-01-11T10:40:49;102521.03;;;-2.48;100.00
41596;BME280;27283;52.504;13.358;2024-01-11T10:43:25;102519.31;;;-2.49;100.00
41596;BME280;27283;52.504;13.358;2024-01-11T10:46:00;102524.72;;;-2.55;100.00
41596;BME280;27283;52.504;13.358;2024-01-11T10:48:38;102527.28;;;-2.18;99.95
41596;BME280;27283;52.504;13.358;2024-01-11T10:51:14;102541.47;;;-1.89;98.95
41596;BME280;27283;52.504;13.358;2024-01-11T10:53:50;102540.47;;;-2.18;98.43
41596;BME280;27283;52.504;13.358;2024-01-11T10:56:26;102530.13;;;-2.25;97.54
41596;BME280;27283;52.504;13.358;2024-01-11T10:59:03;102519.69;;;-1.96;98.18
41596;BME280;27283;52.504;13.358;2024-01-11T11:01:36;102523.31;;;-2.00;97.75
41596;BME280;27283;52.504;13.358;2024-01-11T11:04:25;102522.81;;;-2.14;98.64
41596;BME280;27283;52.504;13.358;2024-01-11T11:07:00;102525.66;;;-2.22;98.31
41596;BME280;27283;52.504;13.358;2024-01-11T11:09:37;102514.88;;;-2.47;100.00
41596;BME280;27283;52.504;13.358;2024-01-11T11:12:13;102514.53;;;-2.00;99.38
41596;BME280;27283;52.504;13.358;2024-01-11T11:14:50;102512.00;;;-2.03;98.96
41596;BME280;27283;52.504;13.358;2024-01-11T11:17:24;102512.50;;;-1.90;97.81
41596;BME280;27283;52.504;13.358;2024-01-11T11:19:57;102517.22;;;-2.02;98.74
41596;BME280;27283;52.504;13.358;2024-01-11T11:22:34;102528.50;;;-1.97;99.44
41596;BME280;27283;52.504;13.358;2024-01-11T11:25:08;102534.50;;;-1.58;98.23
41596;BME280;27283;52.504;13.358;2024-01-11T11:27:41;102530.88;;;-1.87;98.59
41596;BME280;27283;52.504;13.358;2024-01-11T11:30:18;102523.88;;;-1.26;97.08
41596;BME280;27283;52.504;13.358;2024-01-11T11:33:10;102537.66;;;-1.46;96.48
41596;BME280;27283;52.504;13.358;2024-01-11T11:35:43;102538.28;;;-1.36;96.65
41596;BME280;27283;52.504;13.358;2024-01-11T11:38:18;102550.94;;;-0.89;95.42
41596;BME280;27283;52.504;13.358;2024-01-11T11:40:53;102561.31;;;-0.83;94.89
41596;BME280;27283;52.504;13.358;2024-01-11T11:43:28;102557.56;;;-0.76;94.27
41596;BME280;27283;52.504;13.358;2024-01-11T11:46:03;102551.00;;;-0.92;94.45
41596;BME280;27283;52.504;13.358;2024-01-11T11:48:52;102534.41;;;-0.96;95.43
41596;BME280;27283;52.504;13.358;2024-01-11T11:51:26;102540.38;;;-0.89;96.39
41596;BME280;27283;52.504;13.358;2024-01-11T11:53:59;102525.59;;;-1.25;97.93
41596;BME280;27283;52.504;13.358;2024-01-11T11:56:34;102533.91;;;-1.07;98.19
41596;BME280;27283;52.504;13.358;2024-01-11T11:59:08;102535.72;;;-0.81;98.33
41596;BME280;27283;52.504;13.358;2024-01-11T12:01:44;102534.56;;;-1.00;97.50
41596;BME280;27283;52.504;13.358;2024-01-11T12:04:28;102530.03;;;-0.68;97.43
41596;BME280;27283;52.504;13.358;2024-01-11T12:07:02;102522.22;;;-0.72;97.34
41596;BME280;27283;52.504;13.358;2024-01-11T12:09:35;102517.03;;;-0.75;97.93
41596;BME280;27283;52.504;13.358;2024-01-11T12:12:08;102518.34;;;-1.18;98.57
41596;BME280;27283;52.504;13.358;2024-01-11T12:14:44;102512.78;;;-1.07;99.78
41596;BME280;27283;52.504;13.358;2024-01-11T12:17:21;102521.69;;;-1.11;100.00
41596;BME280;27283;52.504;13.358;2024-01-11T12:19:54;102518.72;;;-0.72;99.18
41596;BME280;27283;52.504;13.358;2024-01-11T12:22:26;102521.91;;;-0.89;98.98
41596;BME280;27283;52.504;13.358;2024-01-11T12:24:59;102523.13;;;-0.46;98.60
41596;BME280;27283;52.504;13.358;2024-01-11T12:27:32;102522.69;;;-0.87;98.62
41596;BME280;27283;52.504;13.358;2024-01-11T12:30:06;102515.72;;;-0.61;98.40
41596;BME280;27283;52.504;13.358;2024-01-11T12:33:09;102511.88;;;-0.51;97.21
41596;BME280;27283;52.504;13.358;2024-01-11T12:35:43;102509.53;;;-0.60;98.56
41596;BME280;27283;52.504;13.358;2024-01-11T12:38:16;102493.88;;;-0.14;97.19
41596;BME280;27283;52.504;13.358;2024-01-11T12:41:17;102492.03;;;-0.12;96.05
41596;BME280;27283;52.504;13.358;2024-01-11T12:43:51;102487.97;;;-0.21;96.68
41596;BME280;27283;52.504;13.358;2024-01-11T12:46:25;102493.34;;;0.01;96.31
41596;BME280;27283;52.504;13.358;2024-01-11T12:49:00;102495.25;;;0.21;94.78
41596;BME280;27283;52.504;13.358;2024-01-11T12:51:36;102497.00;;;-0.28;96.62
41596;BME280;27283;52.504;13.358;2024-01-11T12:54:32;102494.22;;;-0.24;96.72
41596;BME280;27283;52.504;13.358;2024-01-11T12:57:06;102503.75;;;0.06;96.10
41596;BME280;27283;52.504;13.358;2024-01-11T12:59:40;102495.25;;;0.21;94.85
41596;BME280;27283;52.504;13.358;2024-01-11T13:02:13;102484.66;;;-0.03;94.80
41596;BME280;27283;52.504;13.358;2024-01-11T13:04:53;102475.44;;;-0.16;96.11
41596;BME280;27283;52.504;13.358;2024-01-11T13:07:44;102466.56;;;-0.94;99.30
41596;BME280;27283;52.504;13.358;2024-01-11T13:10:17;102455.88;;;-0.89;100.00
41596;BME280;27283;52.504;13.358;2024-01-11T13:12:58;102457.84;;;-0.69;100.00
41596;BME280;27283;52.504;13.358;2024-01-11T13:15:52;102463.56;;;-0.56;100.00
41596;BME280;27283;52.504;13.358;2024-01-11T13:18:40;102454.69;;;-0.54;100.00
41596;BME280;27283;52.504;13.358;2024-01-11T13:21:18;102442.81;;;-0.67;100.00